Terminal Aerodrome Forecast
Issued by NWS

Home | Current Version | Previous Version | Text Only | Print | Product List | Glossary On
Versions: 1 2 3 4 5 6 7 8 9 10 11 12 13 14 15 16
106
FTUS43 KILX 140530
TAFCMI
TAF
KCMI 140530Z 1406/1506 13008KT P6SM OVC100
     FM141000 14010KT P6SM SCT035 OVC060
      TEMPO 1410/1412 3SM -SN SCT025 OVC040
     FM141700 14015G23KT 1SM -SN BR SCT015 OVC025
      TEMPO 1418/1421 3/4SM -SN BR SCT002 OVC006
     FM142100 14014KT 3SM -SN BR OVC007
     FM150100 14012KT P6SM OVC015=

USA.gov is the U.S. government's official web portal to all federal, state and local government web resources and services.